createdAt,value
2022-08-17T00:00:08.333Z,40.84
2022-08-17T00:05:15.576Z,41.10
2022-08-17T00:10:22.753Z,41.56
2022-08-17T00:15:29.954Z,41.70
2022-08-17T00:20:37.220Z,41.63
2022-08-17T00:25:44.437Z,41.99
2022-08-17T00:30:53.510Z,42.35
2022-08-17T00:35:58.806Z,42.24
2022-08-17T00:41:06.076Z,42.24
2022-08-17T00:46:13.249Z,42.24
2022-08-17T00:51:20.464Z,42.27
2022-08-17T00:56:27.625Z,42.44
2022-08-17T01:01:34.941Z,42.52
2022-08-17T01:06:42.082Z,42.50
2022-08-17T01:11:49.365Z,42.59
2022-08-17T01:16:56.639Z,42.71
2022-08-17T01:22:03.862Z,42.72
2022-08-17T01:27:11.051Z,42.98
2022-08-17T01:32:18.320Z,43.10
2022-08-17T01:37:25.567Z,43.26
2022-08-17T01:42:32.720Z,43.12
2022-08-17T01:47:40.000Z,43.41
2022-08-17T01:52:47.365Z,43.05
2022-08-17T01:57:54.744Z,43.22
2022-08-17T02:03:01.966Z,43.05
2022-08-17T02:08:09.227Z,43.11
2022-08-17T02:13:17.239Z,42.96
2022-08-17T02:18:24.593Z,42.83
2022-08-17T02:23:31.943Z,42.88
2022-08-17T02:28:39.199Z,43.22
2022-08-17T02:33:46.404Z,43.17
2022-08-17T02:38:53.690Z,43.27
2022-08-17T02:44:01.048Z,43.14
2022-08-17T02:49:08.224Z,43.23
2022-08-17T02:54:40.471Z,43.21
2022-08-17T02:59:22.901Z,43.28
2022-08-17T03:04:30.402Z,43.16
2022-08-17T03:09:37.724Z,43.19
2022-08-17T03:14:45.017Z,43.12
2022-08-17T03:19:52.548Z,43.29
2022-08-17T03:24:59.812Z,43.48
2022-08-17T03:30:07.075Z,43.48
2022-08-17T03:35:14.260Z,43.43
2022-08-17T03:40:34.574Z,43.66
2022-08-17T03:45:28.634Z,43.35
2022-08-17T03:50:35.945Z,43.58
2022-08-17T03:55:43.109Z,43.81
2022-08-17T04:00:50.267Z,43.87
2022-08-17T04:05:57.466Z,44.01
2022-08-17T04:11:04.683Z,43.48
2022-08-17T04:16:11.839Z,44.28
2022-08-17T04:21:19.095Z,43.85
2022-08-17T04:26:52.037Z,43.71
2022-08-17T04:31:33.510Z,43.39
2022-08-17T04:36:40.697Z,43.58
2022-08-17T04:41:47.908Z,43.84
2022-08-17T04:46:55.082Z,44.14
2022-08-17T04:52:04.593Z,44.27
2022-08-17T04:57:09.462Z,44.17
2022-08-17T05:02:16.692Z,44.22
2022-08-17T05:07:27.218Z,44.00
2022-08-17T05:12:31.143Z,44.32
2022-08-17T05:17:38.373Z,44.42
2022-08-17T05:22:45.512Z,44.06
2022-08-17T05:27:52.732Z,44.47
2022-08-17T05:32:59.899Z,45.10
2022-08-17T05:38:07.082Z,45.08
2022-08-17T05:43:14.395Z,45.47
2022-08-17T05:48:21.605Z,45.43
2022-08-17T05:53:28.797Z,46.05
2022-08-17T05:58:36.052Z,46.20
2022-08-17T06:03:43.281Z,45.54
2022-08-17T06:08:51.437Z,45.35
2022-08-17T06:13:58.006Z,46.06
2022-08-17T06:19:05.297Z,45.76
2022-08-17T06:24:12.700Z,45.89
2022-08-17T06:29:20.230Z,46.23
2022-08-17T06:34:27.511Z,46.95
2022-08-17T06:39:34.832Z,47.42
2022-08-17T06:44:50.979Z,46.78
2022-08-17T06:49:55.082Z,47.42
2022-08-17T06:54:57.231Z,47.14
2022-08-17T07:00:04.505Z,46.51
2022-08-17T07:05:11.686Z,46.50
2022-08-17T07:10:18.912Z,46.54
2022-08-17T07:15:26.166Z,45.99
2022-08-17T07:20:33.334Z,45.87
2022-08-17T07:25:40.547Z,47.55
2022-08-17T07:30:47.824Z,48.91
2022-08-17T07:35:55.070Z,48.36
2022-08-17T07:41:02.680Z,48.79
2022-08-17T07:46:09.464Z,49.13
2022-08-17T07:51:16.660Z,48.22
2022-08-17T07:56:23.917Z,49.68
2022-08-17T08:01:41.575Z,49.78
2022-08-17T08:06:38.391Z,49.67
2022-08-17T08:11:45.596Z,49.38
2022-08-17T08:16:52.844Z,49.81
2022-08-17T08:22:00.072Z,49.50
2022-08-17T08:27:07.330Z,49.37
2022-08-17T08:32:14.540Z,49.29
2022-08-17T08:37:32.735Z,49.30
2022-08-17T08:42:29.186Z,49.90
2022-08-17T08:47:36.375Z,49.09
2022-08-17T08:52:43.625Z,49.10
2022-08-17T08:57:51.049Z,48.97
2022-08-17T09:02:58.057Z,48.80
2022-08-17T09:08:05.296Z,47.91
2022-08-17T09:13:12.506Z,48.18
2022-08-17T09:19:00.247Z,47.37
2022-08-17T09:23:26.973Z,47.20
2022-08-17T09:28:34.127Z,46.51
2022-08-17T09:33:41.358Z,46.20
2022-08-17T09:38:48.548Z,46.41
2022-08-17T09:43:55.797Z,45.51
2022-08-17T09:49:03.028Z,45.07
2022-08-17T09:54:37.660Z,45.35
2022-08-17T09:59:17.479Z,44.38
2022-08-17T10:04:29.303Z,44.58
2022-08-17T10:09:31.963Z,44.71
2022-08-17T10:14:44.164Z,44.80
2022-08-17T10:19:46.541Z,45.04
2022-08-17T10:25:21.174Z,44.76
2022-08-17T10:30:01.002Z,44.51
2022-08-17T10:35:08.148Z,44.24
2022-08-17T10:40:15.534Z,43.86
2022-08-17T10:45:22.549Z,43.60
2022-08-17T10:50:29.754Z,43.80
2022-08-17T10:55:36.958Z,43.48
2022-08-17T11:00:44.235Z,42.58
2022-08-17T11:05:51.392Z,42.61
2022-08-17T11:10:58.565Z,43.20
2022-08-17T11:16:08.437Z,42.73
2022-08-17T11:21:12.988Z,42.35
2022-08-17T11:26:20.147Z,41.85
2022-08-17T11:31:38.360Z,41.56
2022-08-17T11:36:34.686Z,41.35
2022-08-17T11:41:41.887Z,41.39
2022-08-17T11:46:51.721Z,41.30
2022-08-17T11:51:56.381Z,41.17
2022-08-17T11:57:03.654Z,41.21
2022-08-17T12:02:11.005Z,41.48
2022-08-17T12:07:18.159Z,41.24
2022-08-17T12:12:25.378Z,41.58
2022-08-17T12:17:39.767Z,40.72
2022-08-17T12:22:39.743Z,41.19
2022-08-17T12:28:04.883Z,41.32
2022-08-17T12:32:54.214Z,41.19
2022-08-17T12:38:01.411Z,41.60
2022-08-17T12:43:08.635Z,41.32
2022-08-17T12:48:16.004Z,41.50
2022-08-17T12:53:23.179Z,40.94
2022-08-17T12:58:30.368Z,40.40
2022-08-17T13:03:37.579Z,40.60
2022-08-17T13:08:44.804Z,40.79
2022-08-17T13:13:52.030Z,40.53
2022-08-17T13:18:59.300Z,40.03
2022-08-17T13:24:06.514Z,40.13
2022-08-17T13:29:13.784Z,39.34
2022-08-17T13:34:20.965Z,39.44
2022-08-17T13:39:28.227Z,39.72
2022-08-17T13:44:35.418Z,39.88
2022-08-17T13:49:48.456Z,39.44
2022-08-17T13:54:49.967Z,39.49
2022-08-17T13:59:57.160Z,39.96
2022-08-17T14:05:06.284Z,39.60
2022-08-17T14:10:11.711Z,39.59
2022-08-17T14:15:18.944Z,39.49
2022-08-17T14:20:26.226Z,39.99
2022-08-17T14:25:33.400Z,39.89
2022-08-17T14:30:40.621Z,40.18
2022-08-17T14:35:47.795Z,39.94
2022-08-17T14:40:55.179Z,40.06
2022-08-17T14:46:02.437Z,40.35
2022-08-17T14:51:09.732Z,40.31
2022-08-17T14:56:16.947Z,40.31
2022-08-17T15:01:24.255Z,40.22
2022-08-17T15:06:31.420Z,40.21
2022-08-17T15:11:38.633Z,40.29
2022-08-17T15:16:45.820Z,40.22
2022-08-17T15:21:53.777Z,40.36
2022-08-17T15:27:01.037Z,40.54
2022-08-17T15:32:08.218Z,40.64
2022-08-17T15:37:15.433Z,40.83
2022-08-17T15:42:22.572Z,40.97
2022-08-17T15:47:29.787Z,41.09
2022-08-17T15:52:36.972Z,41.38
2022-08-17T15:57:44.298Z,41.34
2022-08-17T16:03:45.261Z,41.58
2022-08-17T16:08:00.009Z,42.07
2022-08-17T16:13:17.145Z,42.44
2022-08-17T16:18:14.428Z,42.77
2022-08-17T16:23:21.734Z,43.31
2022-08-17T16:28:35.676Z,43.65
2022-08-17T16:33:36.256Z,44.17
2022-08-17T16:38:43.549Z,44.46
2022-08-17T16:43:50.939Z,44.76
2022-08-17T16:48:58.232Z,44.34
2022-08-17T16:54:05.451Z,44.87
2022-08-17T16:59:30.361Z,44.87
2022-08-17T17:04:20.629Z,45.14
2022-08-17T17:09:27.832Z,45.37
2022-08-17T17:14:35.072Z,45.17
2022-08-17T17:19:42.967Z,45.24
2022-08-17T17:24:50.264Z,45.94
2022-08-17T17:29:56.694Z,45.52
2022-08-17T17:35:03.919Z,45.70
2022-08-17T17:40:11.128Z,45.81
2022-08-17T17:45:18.367Z,45.56
2022-08-17T17:50:25.816Z,45.92
2022-08-17T17:55:33.043Z,45.76
2022-08-17T18:00:40.221Z,45.76
2022-08-17T18:05:47.464Z,46.05
2022-08-17T18:10:54.749Z,46.31
2022-08-17T18:16:01.941Z,46.67
2022-08-17T18:21:09.150Z,46.25
2022-08-17T18:26:16.327Z,47.79
2022-08-17T18:31:23.573Z,46.21
2022-08-17T18:36:30.782Z,46.65
2022-08-17T18:41:38.065Z,47.55
2022-08-17T18:46:45.294Z,46.49
2022-08-17T18:51:52.502Z,45.93
2022-08-17T18:56:59.731Z,46.33
2022-08-17T19:02:12.031Z,47.56
2022-08-17T19:07:14.120Z,47.92
2022-08-17T19:12:24.955Z,47.35
2022-08-17T19:17:28.554Z,48.57
2022-08-17T19:22:35.778Z,49.71
2022-08-17T19:27:46.389Z,49.09
2022-08-17T19:32:50.296Z,47.32
2022-08-17T19:37:57.887Z,46.53
2022-08-17T19:43:05.231Z,46.56
2022-08-17T19:48:12.559Z,46.54
2022-08-17T19:53:19.822Z,46.83
2022-08-17T19:58:27.101Z,46.85
2022-08-17T20:03:34.948Z,46.76
2022-08-17T20:08:42.183Z,46.45
2022-08-17T20:13:49.545Z,46.02
2022-08-17T20:18:56.834Z,45.44
2022-08-17T20:24:04.012Z,45.13
2022-08-17T20:29:11.212Z,44.83
2022-08-17T20:34:19.240Z,44.67
2022-08-17T20:39:26.524Z,44.63
2022-08-17T20:44:33.717Z,44.50
2022-08-17T20:49:40.969Z,43.80
2022-08-17T20:54:48.264Z,43.63
2022-08-17T20:59:55.552Z,43.97
2022-08-17T21:05:06.881Z,43.67
2022-08-17T21:10:10.034Z,43.41
2022-08-17T21:15:18.216Z,43.31
2022-08-17T21:20:25.511Z,43.21
2022-08-17T21:25:32.746Z,43.09
2022-08-17T21:30:39.945Z,43.00
2022-08-17T21:35:47.145Z,42.45
2022-08-17T21:40:55.043Z,42.75
2022-08-17T21:46:02.173Z,43.09
2022-08-17T21:51:09.484Z,43.22
2022-08-17T21:56:16.663Z,43.94
2022-08-17T22:01:23.985Z,44.93
2022-08-17T22:06:31.027Z,45.45
2022-08-17T22:11:38.201Z,45.56
2022-08-17T22:16:45.395Z,45.55
2022-08-17T22:21:52.605Z,45.18
2022-08-17T22:26:59.829Z,44.91
2022-08-17T22:32:07.075Z,44.68
2022-08-17T22:37:14.247Z,44.74
2022-08-17T22:42:21.808Z,44.46
2022-08-17T22:47:29.041Z,44.46
2022-08-17T22:52:36.323Z,45.42
2022-08-17T22:57:43.591Z,46.21
2022-08-17T23:02:55.068Z,46.35
2022-08-17T23:07:58.082Z,45.32
2022-08-17T23:13:05.336Z,44.57
2022-08-17T23:18:12.572Z,44.67
2022-08-17T23:23:23.549Z,44.62
2022-08-17T23:28:27.004Z,44.23
2022-08-17T23:33:34.180Z,44.55
2022-08-17T23:38:41.390Z,44.36
2022-08-17T23:43:54.878Z,44.36
2022-08-17T23:49:02.052Z,44.30
2022-08-17T23:54:09.238Z,44.27
2022-08-17T23:59:17.147Z,44.26
